sensor_id;sensor_type;location;lat;lon;timestamp;pressure;altitude;pressure_sealevel;temperature;humidity
31717;BME280;18301;51.076;17.046;2023-04-19T00:00:22;100697.97;;;12.10;78.77
31717;BME280;18301;51.076;17.046;2023-04-19T00:05:24;100702.41;;;12.11;78.77
31717;BME280;18301;51.076;17.046;2023-04-19T00:10:26;100694.97;;;12.02;78.96
31717;BME280;18301;51.076;17.046;2023-04-19T00:15:28;100687.31;;;11.96;78.92
31717;BME280;18301;51.076;17.046;2023-04-19T00:20:30;100687.88;;;11.88;79.06
31717;BME280;18301;51.076;17.046;2023-04-19T00:25:31;100681.09;;;11.83;78.97
31717;BME280;18301;51.076;17.046;2023-04-19T00:30:35;100683.03;;;11.81;78.85
31717;BME280;18301;51.076;17.046;2023-04-19T00:35:36;100667.63;;;11.70;78.93
31717;BME280;18301;51.076;17.046;2023-04-19T00:40:38;100663.56;;;11.75;79.31
31717;BME280;18301;51.076;17.046;2023-04-19T00:45:39;100674.84;;;11.69;78.83
31717;BME280;18301;51.076;17.046;2023-04-19T00:50:42;100669.28;;;11.47;78.84
31717;BME280;18301;51.076;17.046;2023-04-19T00:55:44;100661.19;;;11.47;78.95
31717;BME280;18301;51.076;17.046;2023-04-19T01:00:46;100650.88;;;11.28;78.85
31717;BME280;18301;51.076;17.046;2023-04-19T01:05:48;100644.56;;;11.40;77.88
31717;BME280;18301;51.076;17.046;2023-04-19T01:10:50;100635.41;;;11.30;76.32
31717;BME280;18301;51.076;17.046;2023-04-19T01:15:51;100639.09;;;11.16;76.30
31717;BME280;18301;51.076;17.046;2023-04-19T01:20:53;100632.66;;;11.06;76.43
31717;BME280;18301;51.076;17.046;2023-04-19T01:25:54;100629.19;;;11.04;76.64
31717;BME280;18301;51.076;17.046;2023-04-19T01:30:56;100627.78;;;10.98;76.27
31717;BME280;18301;51.076;17.046;2023-04-19T01:35:57;100620.03;;;10.94;76.45
31717;BME280;18301;51.076;17.046;2023-04-19T01:40:59;100609.56;;;10.89;74.42
31717;BME280;18301;51.076;17.046;2023-04-19T01:46:00;100616.91;;;10.74;74.51
31717;BME280;18301;51.076;17.046;2023-04-19T01:51:02;100611.72;;;10.71;74.66
31717;BME280;18301;51.076;17.046;2023-04-19T01:56:04;100602.84;;;10.95;73.23
31717;BME280;18301;51.076;17.046;2023-04-19T02:01:05;100600.94;;;10.71;72.09
31717;BME280;18301;51.076;17.046;2023-04-19T02:06:13;100604.16;;;10.76;68.22
31717;BME280;18301;51.076;17.046;2023-04-19T02:11:14;100609.16;;;10.57;67.19
31717;BME280;18301;51.076;17.046;2023-04-19T02:16:16;100608.41;;;10.42;67.10
31717;BME280;18301;51.076;17.046;2023-04-19T02:21:17;100604.84;;;10.42;67.25
31717;BME280;18301;51.076;17.046;2023-04-19T02:26:19;100602.22;;;10.27;66.50
31717;BME280;18301;51.076;17.046;2023-04-19T02:31:20;100592.63;;;10.36;67.63
31717;BME280;18301;51.076;17.046;2023-04-19T02:36:22;100600.44;;;10.41;64.06
31717;BME280;18301;51.076;17.046;2023-04-19T02:41:24;100598.97;;;10.22;64.88
31717;BME280;18301;51.076;17.046;2023-04-19T02:46:25;100592.47;;;10.12;60.33
31717;BME280;18301;51.076;17.046;2023-04-19T02:51:27;100591.59;;;9.99;62.84
31717;BME280;18301;51.076;17.046;2023-04-19T02:56:28;100594.50;;;9.96;62.91
31717;BME280;18301;51.076;17.046;2023-04-19T03:01:30;100575.19;;;9.89;62.51
31717;BME280;18301;51.076;17.046;2023-04-19T03:06:32;100575.84;;;9.93;63.44
31717;BME280;18301;51.076;17.046;2023-04-19T03:11:34;100576.69;;;9.93;62.99
31717;BME280;18301;51.076;17.046;2023-04-19T03:16:36;100568.09;;;10.01;62.06
31717;BME280;18301;51.076;17.046;2023-04-19T03:21:38;100565.03;;;9.93;62.08
31717;BME280;18301;51.076;17.046;2023-04-19T03:26:40;100552.06;;;9.85;62.18
31717;BME280;18301;51.076;17.046;2023-04-19T03:31:41;100561.31;;;9.68;61.04
31717;BME280;18301;51.076;17.046;2023-04-19T03:36:43;100548.84;;;9.67;61.50
31717;BME280;18301;51.076;17.046;2023-04-19T03:41:44;100550.75;;;9.65;61.63
31717;BME280;18301;51.076;17.046;2023-04-19T03:46:46;100554.22;;;9.67;61.18
31717;BME280;18301;51.076;17.046;2023-04-19T03:51:49;100546.84;;;9.56;61.68
31717;BME280;18301;51.076;17.046;2023-04-19T03:56:50;100550.97;;;9.62;62.55
31717;BME280;18301;51.076;17.046;2023-04-19T04:01:52;100558.47;;;9.57;62.50
31717;BME280;18301;51.076;17.046;2023-04-19T04:06:53;100556.06;;;9.39;61.48
31717;BME280;18301;51.076;17.046;2023-04-19T04:11:55;100553.88;;;9.32;61.38
31717;BME280;18301;51.076;17.046;2023-04-19T04:16:56;100555.66;;;9.45;61.15
31717;BME280;18301;51.076;17.046;2023-04-19T04:21:57;100562.47;;;9.24;62.02
31717;BME280;18301;51.076;17.046;2023-04-19T04:26:59;100553.63;;;8.81;65.99
31717;BME280;18301;51.076;17.046;2023-04-19T04:32:01;100575.63;;;8.59;69.75
31717;BME280;18301;51.076;17.046;2023-04-19T04:37:03;100574.00;;;8.42;70.59
31717;BME280;18301;51.076;17.046;2023-04-19T04:42:05;100571.59;;;7.93;73.30
31717;BME280;18301;51.076;17.046;2023-04-19T04:47:11;100568.66;;;7.81;73.43
31717;BME280;18301;51.076;17.046;2023-04-19T04:52:13;100570.31;;;7.84;73.67
31717;BME280;18301;51.076;17.046;2023-04-19T04:57:14;100563.78;;;7.88;74.37
31717;BME280;18301;51.076;17.046;2023-04-19T05:02:16;100572.25;;;7.82;74.61
31717;BME280;18301;51.076;17.046;2023-04-19T05:07:17;100570.03;;;7.89;75.61
31717;BME280;18301;51.076;17.046;2023-04-19T05:12:19;100565.66;;;8.02;75.39
31717;BME280;18301;51.076;17.046;2023-04-19T05:17:20;100568.78;;;7.94;76.56
31717;BME280;18301;51.076;17.046;2023-04-19T05:22:22;100560.56;;;8.12;73.56
31717;BME280;18301;51.076;17.046;2023-04-19T05:27:23;100549.63;;;8.15;73.57
31717;BME280;18301;51.076;17.046;2023-04-19T05:32:25;100555.97;;;8.28;72.22
31717;BME280;18301;51.076;17.046;2023-04-19T05:37:27;100547.16;;;8.26;71.41
31717;BME280;18301;51.076;17.046;2023-04-19T05:42:30;100550.00;;;8.08;71.89
31717;BME280;18301;51.076;17.046;2023-04-19T05:47:32;100537.53;;;8.07;71.01
31717;BME280;18301;51.076;17.046;2023-04-19T05:52:34;100537.34;;;8.25;69.57
31717;BME280;18301;51.076;17.046;2023-04-19T05:57:35;100533.09;;;7.92;69.24
31717;BME280;18301;51.076;17.046;2023-04-19T06:02:39;100531.53;;;7.88;68.58
31717;BME280;18301;51.076;17.046;2023-04-19T06:07:41;100531.34;;;7.91;70.04
31717;BME280;18301;51.076;17.046;2023-04-19T06:12:54;100536.13;;;7.72;69.54
31717;BME280;18301;51.076;17.046;2023-04-19T06:17:55;100537.00;;;7.42;69.30
31717;BME280;18301;51.076;17.046;2023-04-19T06:23:00;100540.75;;;7.54;69.61
31717;BME280;18301;51.076;17.046;2023-04-19T06:28:01;100549.69;;;7.54;69.89
31717;BME280;18301;51.076;17.046;2023-04-19T06:33:03;100554.84;;;7.73;68.98
31717;BME280;18301;51.076;17.046;2023-04-19T06:38:04;100539.66;;;8.31;67.43
31717;BME280;18301;51.076;17.046;2023-04-19T06:43:06;100538.97;;;7.99;67.59
31717;BME280;18301;51.076;17.046;2023-04-19T06:48:08;100542.53;;;8.14;67.63
31717;BME280;18301;51.076;17.046;2023-04-19T06:53:09;100539.44;;;8.50;67.72
31717;BME280;18301;51.076;17.046;2023-04-19T06:58:11;100541.22;;;8.64;66.05
31717;BME280;18301;51.076;17.046;2023-04-19T07:03:12;100550.28;;;8.63;67.61
31717;BME280;18301;51.076;17.046;2023-04-19T07:08:14;100551.00;;;8.79;67.51
31717;BME280;18301;51.076;17.046;2023-04-19T07:13:16;100554.09;;;8.87;67.38
31717;BME280;18301;51.076;17.046;2023-04-19T07:18:18;100542.41;;;9.01;66.97
31717;BME280;18301;51.076;17.046;2023-04-19T07:23:19;100535.47;;;9.38;66.30
31717;BME280;18301;51.076;17.046;2023-04-19T07:28:21;100531.97;;;9.23;66.22
31717;BME280;18301;51.076;17.046;2023-04-19T07:33:22;100518.56;;;9.36;66.83
31717;BME280;18301;51.076;17.046;2023-04-19T07:38:28;100519.06;;;9.68;63.81
31717;BME280;18301;51.076;17.046;2023-04-19T07:43:29;100524.31;;;9.57;64.34
31717;BME280;18301;51.076;17.046;2023-04-19T07:48:31;100521.63;;;9.57;63.83
31717;BME280;18301;51.076;17.046;2023-04-19T07:53:32;100516.75;;;10.02;63.98
31717;BME280;18301;51.076;17.046;2023-04-19T07:58:35;100509.63;;;10.14;63.35
31717;BME280;18301;51.076;17.046;2023-04-19T08:03:36;100520.66;;;10.36;63.19
31717;BME280;18301;51.076;17.046;2023-04-19T08:08:38;100517.41;;;10.57;62.32
31717;BME280;18301;51.076;17.046;2023-04-19T08:13:40;100523.75;;;10.56;62.47
31717;BME280;18301;51.076;17.046;2023-04-19T08:18:46;100536.47;;;10.15;62.08
31717;BME280;18301;51.076;17.046;2023-04-19T08:23:51;100514.84;;;10.30;61.47
31717;BME280;18301;51.076;17.046;2023-04-19T08:28:55;100510.09;;;10.33;62.85
31717;BME280;18301;51.076;17.046;2023-04-19T08:33:57;100512.22;;;10.54;62.20
31717;BME280;18301;51.076;17.046;2023-04-19T08:39:00;100513.75;;;10.07;61.00
31717;BME280;18301;51.076;17.046;2023-04-19T08:44:10;100513.25;;;9.75;61.90
31717;BME280;18301;51.076;17.046;2023-04-19T08:49:13;100518.63;;;9.62;62.09
31717;BME280;18301;51.076;17.046;2023-04-19T08:54:16;100523.75;;;9.39;63.55
31717;BME280;18301;51.076;17.046;2023-04-19T08:59:18;100524.56;;;9.27;64.10
31717;BME280;18301;51.076;17.046;2023-04-19T09:04:20;100524.41;;;9.16;63.96
31717;BME280;18301;51.076;17.046;2023-04-19T09:09:37;100515.75;;;9.11;65.28
31717;BME280;18301;51.076;17.046;2023-04-19T09:15:01;100505.09;;;9.76;64.68
31717;BME280;18301;51.076;17.046;2023-04-19T09:20:05;100494.25;;;10.29;63.81
31717;BME280;18301;51.076;17.046;2023-04-19T09:25:07;100490.47;;;10.31;61.78
31717;BME280;18301;51.076;17.046;2023-04-19T09:30:12;100498.72;;;10.03;62.70
31717;BME280;18301;51.076;17.046;2023-04-19T09:35:45;100504.81;;;9.54;64.74
31717;BME280;18301;51.076;17.046;2023-04-19T09:40:48;100509.19;;;9.42;64.70
31717;BME280;18301;51.076;17.046;2023-04-19T09:45:50;100507.38;;;9.42;64.65
31717;BME280;18301;51.076;17.046;2023-04-19T09:50:55;100488.75;;;9.12;65.17
31717;BME280;18301;51.076;17.046;2023-04-19T09:56:04;100502.81;;;9.30;65.16
31717;BME280;18301;51.076;17.046;2023-04-19T10:01:09;100495.81;;;9.28;65.88
31717;BME280;18301;51.076;17.046;2023-04-19T10:06:17;100509.78;;;9.60;64.61
31717;BME280;18301;51.076;17.046;2023-04-19T10:11:25;100515.81;;;8.96;65.86
31717;BME280;18301;51.076;17.046;2023-04-19T10:16:29;100505.84;;;8.84;66.44
31717;BME280;18301;51.076;17.046;2023-04-19T10:21:31;100509.28;;;8.86;66.68
31717;BME280;18301;51.076;17.046;2023-04-19T10:32:04;100491.84;;;9.06;67.00
31717;BME280;18301;51.076;17.046;2023-04-19T10:37:09;100481.84;;;9.08;67.32
31717;BME280;18301;51.076;17.046;2023-04-19T10:42:11;100481.28;;;9.30;66.83
31717;BME280;18301;51.076;17.046;2023-04-19T10:47:43;100486.94;;;9.65;65.83
31717;BME280;18301;51.076;17.046;2023-04-19T10:52:44;100487.00;;;9.38;66.53
31717;BME280;18301;51.076;17.046;2023-04-19T10:58:02;100470.31;;;9.46;66.73
31717;BME280;18301;51.076;17.046;2023-04-19T11:08:45;100475.16;;;9.41;66.81
31717;BME280;18301;51.076;17.046;2023-04-19T11:13:47;100479.13;;;9.48;66.53
31717;BME280;18301;51.076;17.046;2023-04-19T11:18:49;100479.06;;;8.95;68.24
31717;BME280;18301;51.076;17.046;2023-04-19T11:24:09;100473.03;;;9.19;68.31
31717;BME280;18301;51.076;17.046;2023-04-19T11:29:11;100467.69;;;9.05;69.15
31717;BME280;18301;51.076;17.046;2023-04-19T11:34:13;100463.22;;;9.05;68.87
31717;BME280;18301;51.076;17.046;2023-04-19T11:39:15;100475.06;;;8.88;70.22
31717;BME280;18301;51.076;17.046;2023-04-19T11:44:18;100472.94;;;8.93;70.20
31717;BME280;18301;51.076;17.046;2023-04-19T11:49:27;100470.03;;;8.69;71.46
31717;BME280;18301;51.076;17.046;2023-04-19T11:54:29;100482.78;;;8.80;71.54
31717;BME280;18301;51.076;17.046;2023-04-19T11:59:33;100472.59;;;8.71;72.58
31717;BME280;18301;51.076;17.046;2023-04-19T12:04:36;100484.91;;;8.75;72.43
31717;BME280;18301;51.076;17.046;2023-04-19T12:09:38;100473.78;;;8.67;73.53
31717;BME280;18301;51.076;17.046;2023-04-19T12:14:50;100460.53;;;8.64;73.41
31717;BME280;18301;51.076;17.046;2023-04-19T12:19:52;100471.41;;;8.48;74.96
31717;BME280;18301;51.076;17.046;2023-04-19T12:24:53;100474.81;;;8.79;73.71
31717;BME280;18301;51.076;17.046;2023-04-19T12:29:56;100477.59;;;8.77;73.76
31717;BME280;18301;51.076;17.046;2023-04-19T12:34:57;100474.56;;;8.69;73.53
31717;BME280;18301;51.076;17.046;2023-04-19T12:39:59;100470.75;;;8.44;74.36
31717;BME280;18301;51.076;17.046;2023-04-19T12:45:00;100474.19;;;8.46;74.91
31717;BME280;18301;51.076;17.046;2023-04-19T12:50:02;100470.53;;;8.33;75.23
31717;BME280;18301;51.076;17.046;2023-04-19T12:55:04;100471.31;;;8.35;75.51
31717;BME280;18301;51.076;17.046;2023-04-19T13:00:08;100469.56;;;8.34;75.33
31717;BME280;18301;51.076;17.046;2023-04-19T13:05:10;100467.75;;;8.49;74.64
31717;BME280;18301;51.076;17.046;2023-04-19T13:10:13;100475.53;;;8.53;74.06
31717;BME280;18301;51.076;17.046;2023-04-19T13:15:14;100467.56;;;8.23;73.84
31717;BME280;18301;51.076;17.046;2023-04-19T13:20:18;100475.91;;;8.04;74.36
31717;BME280;18301;51.076;17.046;2023-04-19T13:25:20;100468.41;;;8.24;74.91
31717;BME280;18301;51.076;17.046;2023-04-19T13:30:22;100473.78;;;8.24;74.78
31717;BME280;18301;51.076;17.046;2023-04-19T13:35:23;100465.75;;;8.38;74.74
31717;BME280;18301;51.076;17.046;2023-04-19T13:40:25;100473.44;;;8.44;74.01
31717;BME280;18301;51.076;17.046;2023-04-19T13:45:27;100474.50;;;8.42;74.43
31717;BME280;18301;51.076;17.046;2023-04-19T13:50:28;100472.84;;;8.39;74.40
31717;BME280;18301;51.076;17.046;2023-04-19T13:55:30;100475.91;;;8.62;74.20
31717;BME280;18301;51.076;17.046;2023-04-19T14:00:31;100480.91;;;8.53;74.33
31717;BME280;18301;51.076;17.046;2023-04-19T14:05:34;100471.69;;;8.58;73.86
31717;BME280;18301;51.076;17.046;2023-04-19T14:10:36;100469.31;;;8.53;73.68
31717;BME280;18301;51.076;17.046;2023-04-19T14:15:39;100462.09;;;8.39;73.42
31717;BME280;18301;51.076;17.046;2023-04-19T14:20:41;100458.13;;;8.30;73.58
31717;BME280;18301;51.076;17.046;2023-04-19T14:25:42;100461.94;;;8.84;72.31
31717;BME280;18301;51.076;17.046;2023-04-19T14:30:43;100458.69;;;8.64;72.28
31717;BME280;18301;51.076;17.046;2023-04-19T14:35:45;100455.13;;;8.78;72.05
31717;BME280;18301;51.076;17.046;2023-04-19T14:40:47;100464.66;;;8.69;72.02
31717;BME280;18301;51.076;17.046;2023-04-19T14:45:48;100461.94;;;8.84;72.58
31717;BME280;18301;51.076;17.046;2023-04-19T14:50:50;100468.16;;;8.84;71.78
31717;BME280;18301;51.076;17.046;2023-04-19T14:55:52;100458.34;;;8.83;71.71
31717;BME280;18301;51.076;17.046;2023-04-19T15:00:53;100464.56;;;8.98;71.21
31717;BME280;18301;51.076;17.046;2023-04-19T15:05:55;100455.25;;;8.89;71.41
31717;BME280;18301;51.076;17.046;2023-04-19T15:10:56;100457.91;;;9.04;71.32
31717;BME280;18301;51.076;17.046;2023-04-19T15:15:57;100456.28;;;9.28;71.05
31717;BME280;18301;51.076;17.046;2023-04-19T15:21:03;100455.00;;;9.34;70.05
31717;BME280;18301;51.076;17.046;2023-04-19T15:26:05;100452.47;;;8.91;70.03
31717;BME280;18301;51.076;17.046;2023-04-19T15:31:07;100458.84;;;8.90;69.64
31717;BME280;18301;51.076;17.046;2023-04-19T15:36:09;100456.28;;;9.28;69.71
31717;BME280;18301;51.076;17.046;2023-04-19T15:41:10;100469.53;;;9.31;70.02
31717;BME280;18301;51.076;17.046;2023-04-19T15:46:12;100462.66;;;9.40;69.68
31717;BME280;18301;51.076;17.046;2023-04-19T15:51:14;100451.69;;;9.56;69.43
31717;BME280;18301;51.076;17.046;2023-04-19T15:56:16;100459.78;;;9.56;68.44
31717;BME280;18301;51.076;17.046;2023-04-19T16:01:17;100460.41;;;9.47;69.21
31717;BME280;18301;51.076;17.046;2023-04-19T16:06:19;100471.31;;;9.58;68.72
31717;BME280;18301;51.076;17.046;2023-04-19T16:11:22;100462.19;;;9.73;68.74
31717;BME280;18301;51.076;17.046;2023-04-19T16:16:24;100459.97;;;9.40;68.18
31717;BME280;18301;51.076;17.046;2023-04-19T16:21:27;100469.88;;;9.39;68.04
31717;BME280;18301;51.076;17.046;2023-04-19T16:26:29;100479.94;;;9.23;67.78
31717;BME280;18301;51.076;17.046;2023-04-19T16:31:30;100475.53;;;9.22;68.36
31717;BME280;18301;51.076;17.046;2023-04-19T16:36:32;100473.94;;;9.32;67.99
31717;BME280;18301;51.076;17.046;2023-04-19T16:41:33;100477.25;;;9.23;67.62
31717;BME280;18301;51.076;17.046;2023-04-19T16:46:35;100476.47;;;9.08;68.36
31717;BME280;18301;51.076;17.046;2023-04-19T16:51:36;100486.53;;;9.05;68.46
31717;BME280;18301;51.076;17.046;2023-04-19T16:56:38;100490.63;;;8.97;68.67
31717;BME280;18301;51.076;17.046;2023-04-19T17:01:39;100494.44;;;8.81;69.01
31717;BME280;18301;51.076;17.046;2023-04-19T17:06:41;100501.66;;;8.66;69.27
31717;BME280;18301;51.076;17.046;2023-04-19T17:11:42;100495.69;;;8.46;69.49
31717;BME280;18301;51.076;17.046;2023-04-19T17:16:44;100491.75;;;8.66;68.72
31717;BME280;18301;51.076;17.046;2023-04-19T17:21:46;100499.34;;;8.60;68.65
31717;BME280;18301;51.076;17.046;2023-04-19T17:26:47;100501.81;;;8.77;69.02
31717;BME280;18301;51.076;17.046;2023-04-19T17:31:50;100497.84;;;8.97;67.82
31717;BME280;18301;51.076;17.046;2023-04-19T17:36:51;100495.63;;;8.89;68.21
31717;BME280;18301;51.076;17.046;2023-04-19T17:41:53;100507.00;;;8.80;68.46
31717;BME280;18301;51.076;17.046;2023-04-19T17:46:55;100512.94;;;8.85;68.76
31717;BME280;18301;51.076;17.046;2023-04-19T17:51:57;100505.44;;;8.90;68.93
31717;BME280;18301;51.076;17.046;2023-04-19T17:56:59;100516.28;;;8.89;69.42
31717;BME280;18301;51.076;17.046;2023-04-19T18:02:02;100513.97;;;8.97;69.07
31717;BME280;18301;51.076;17.046;2023-04-19T18:07:04;100516.28;;;9.03;68.80
31717;BME280;18301;51.076;17.046;2023-04-19T18:12:06;100525.72;;;8.96;68.40
31717;BME280;18301;51.076;17.046;2023-04-19T18:17:07;100536.94;;;9.03;68.17
31717;BME280;18301;51.076;17.046;2023-04-19T18:22:09;100541.75;;;8.97;68.09
31717;BME280;18301;51.076;17.046;2023-04-19T18:27:10;100541.56;;;8.86;68.64
31717;BME280;18301;51.076;17.046;2023-04-19T18:32:12;100540.72;;;8.86;68.74
31717;BME280;18301;51.076;17.046;2023-04-19T18:37:15;100545.03;;;8.88;68.18
31717;BME280;18301;51.076;17.046;2023-04-19T18:42:17;100550.22;;;8.91;67.63
31717;BME280;18301;51.076;17.046;2023-04-19T18:47:18;100549.16;;;8.94;68.03
31717;BME280;18301;51.076;17.046;2023-04-19T18:52:20;100553.69;;;8.93;67.96
31717;BME280;18301;51.076;17.046;2023-04-19T18:57:21;100546.75;;;8.89;67.75
31717;BME280;18301;51.076;17.046;2023-04-19T19:02:27;100553.22;;;8.87;67.95
31717;BME280;18301;51.076;17.046;2023-04-19T19:07:29;100545.25;;;8.85;68.39
31717;BME280;18301;51.076;17.046;2023-04-19T19:12:34;100548.41;;;8.92;68.28
31717;BME280;18301;51.076;17.046;2023-04-19T19:17:36;100552.16;;;8.89;67.49
31717;BME280;18301;51.076;17.046;2023-04-19T19:22:38;100555.06;;;8.72;67.56
31717;BME280;18301;51.076;17.046;2023-04-19T19:27:40;100561.59;;;8.82;68.08
31717;BME280;18301;51.076;17.046;2023-04-19T19:32:58;100555.44;;;8.80;68.31
31717;BME280;18301;51.076;17.046;2023-04-19T19:38:00;100557.19;;;8.67;68.64
31717;BME280;18301;51.076;17.046;2023-04-19T19:43:01;100559.47;;;8.73;69.11
31717;BME280;18301;51.076;17.046;2023-04-19T19:48:03;100560.44;;;8.72;69.50
31717;BME280;18301;51.076;17.046;2023-04-19T19:53:05;100577.84;;;8.66;69.53
31717;BME280;18301;51.076;17.046;2023-04-19T19:58:06;100568.41;;;8.73;69.36
31717;BME280;18301;51.076;17.046;2023-04-19T20:03:11;100571.97;;;8.74;69.25
31717;BME280;18301;51.076;17.046;2023-04-19T20:08:13;100574.84;;;8.71;69.58
31717;BME280;18301;51.076;17.046;2023-04-19T20:13:15;100572.75;;;8.76;69.76
31717;BME280;18301;51.076;17.046;2023-04-19T20:18:17;100565.72;;;8.73;69.71
31717;BME280;18301;51.076;17.046;2023-04-19T20:23:19;100578.13;;;8.76;69.94
31717;BME280;18301;51.076;17.046;2023-04-19T20:28:21;100590.03;;;8.72;70.49
31717;BME280;18301;51.076;17.046;2023-04-19T20:33:23;100578.31;;;8.73;70.27
31717;BME280;18301;51.076;17.046;2023-04-19T20:38:24;100573.31;;;8.81;69.79
31717;BME280;18301;51.076;17.046;2023-04-19T20:43:29;100562.56;;;8.81;70.09
31717;BME280;18301;51.076;17.046;2023-04-19T20:48:31;100574.66;;;8.74;70.67
31717;BME280;18301;51.076;17.046;2023-04-19T20:53:32;100579.56;;;8.67;71.37
31717;BME280;18301;51.076;17.046;2023-04-19T20:58:35;100575.22;;;8.65;70.87
31717;BME280;18301;51.076;17.046;2023-04-19T21:03:38;100581.50;;;8.65;71.01
31717;BME280;18301;51.076;17.046;2023-04-19T21:08:39;100586.88;;;8.65;71.33
31717;BME280;18301;51.076;17.046;2023-04-19T21:13:41;100578.91;;;8.64;71.34
31717;BME280;18301;51.076;17.046;2023-04-19T21:18:42;100570.03;;;8.62;70.67
31717;BME280;18301;51.076;17.046;2023-04-19T21:23:44;100574.09;;;8.55;70.96
31717;BME280;18301;51.076;17.046;2023-04-19T21:28:45;100578.81;;;8.51;71.30
31717;BME280;18301;51.076;17.046;2023-04-19T21:33:47;100591.94;;;8.56;71.40
31717;BME280;18301;51.076;17.046;2023-04-19T21:38:48;100583.13;;;8.53;71.11
31717;BME280;18301;51.076;17.046;2023-04-19T21:43:50;100575.81;;;8.56;71.06
31717;BME280;18301;51.076;17.046;2023-04-19T21:48:51;100570.25;;;8.59;70.88
31717;BME280;18301;51.076;17.046;2023-04-19T21:53:56;100571.88;;;8.61;70.75
31717;BME280;18301;51.076;17.046;2023-04-19T21:58:57;100575.72;;;8.57;70.79
31717;BME280;18301;51.076;17.046;2023-04-19T22:03:59;100568.53;;;8.58;70.13
31717;BME280;18301;51.076;17.046;2023-04-19T22:09:02;100585.31;;;8.61;69.90
31717;BME280;18301;51.076;17.046;2023-04-19T22:14:06;100590.91;;;8.58;70.60
31717;BME280;18301;51.076;17.046;2023-04-19T22:19:08;100573.91;;;8.58;70.70
31717;BME280;18301;51.076;17.046;2023-04-19T22:24:10;100576.41;;;8.61;70.38
31717;BME280;18301;51.076;17.046;2023-04-19T22:29:11;100577.91;;;8.65;70.62
31717;BME280;18301;51.076;17.046;2023-04-19T22:34:13;100569.84;;;8.65;70.88
31717;BME280;18301;51.076;17.046;2023-04-19T22:39:14;100567.47;;;8.60;70.97
31717;BME280;18301;51.076;17.046;2023-04-19T22:44:16;100556.72;;;8.60;71.28
31717;BME280;18301;51.076;17.046;2023-04-19T22:49:18;100559.56;;;8.43;71.65
31717;BME280;18301;51.076;17.046;2023-04-19T22:54:22;100558.53;;;8.45;71.93
31717;BME280;18301;51.076;17.046;2023-04-19T22:59:23;100551.44;;;8.44;71.78
31717;BME280;18301;51.076;17.046;2023-04-19T23:04:25;100559.19;;;8.49;71.75
31717;BME280;18301;51.076;17.046;2023-04-19T23:09:27;100559.97;;;8.51;71.82
31717;BME280;18301;51.076;17.046;2023-04-19T23:14:29;100566.16;;;8.37;72.09
31717;BME280;18301;51.076;17.046;2023-04-19T23:19:31;100567.44;;;8.32;72.38
31717;BME280;18301;51.076;17.046;2023-04-19T23:24:33;100559.44;;;8.30;72.43
31717;BME280;18301;51.076;17.046;2023-04-19T23:29:36;100550.59;;;8.28;72.66
31717;BME280;18301;51.076;17.046;2023-04-19T23:34:37;100546.44;;;8.38;72.74
31717;BME280;18301;51.076;17.046;2023-04-19T23:39:39;100546.97;;;8.29;72.75
31717;BME280;18301;51.076;17.046;2023-04-19T23:44:40;100542.34;;;8.17;73.37
31717;BME280;18301;51.076;17.046;2023-04-19T23:49:44;100543.66;;;7.95;74.83
31717;BME280;18301;51.076;17.046;2023-04-19T23:54:45;100536.16;;;8.00;74.47
31717;BME280;18301;51.076;17.046;2023-04-19T23:59:47;100533.47;;;8.00;74.68
